sensor_id;sensor_type;location;lat;lon;timestamp;P1;durP1;ratioP1;P2;durP2;ratioP2
27804;SDS011;15183;51.350;11.102;2023-02-01T00:01:12;8.93;;;2.60;;
27804;SDS011;15183;51.350;11.102;2023-02-01T00:03:39;14.98;;;3.08;;
27804;SDS011;15183;51.350;11.102;2023-02-01T00:06:05;10.07;;;2.80;;
27804;SDS011;15183;51.350;11.102;2023-02-01T00:08:31;15.82;;;3.08;;
27804;SDS011;15183;51.350;11.102;2023-02-01T00:11:08;10.73;;;2.60;;
27804;SDS011;15183;51.350;11.102;2023-02-01T00:13:37;14.75;;;2.83;;
27804;SDS011;15183;51.350;11.102;2023-02-01T00:16:08;10.48;;;2.45;;
27804;SDS011;15183;51.350;11.102;2023-02-01T00:18:46;11.15;;;2.60;;
27804;SDS011;15183;51.350;11.102;2023-02-01T00:21:16;11.32;;;2.80;;
27804;SDS011;15183;51.350;11.102;2023-02-01T00:23:46;9.23;;;2.13;;
27804;SDS011;15183;51.350;11.102;2023-02-01T00:26:14;13.48;;;3.03;;
27804;SDS011;15183;51.350;11.102;2023-02-01T00:28:51;14.75;;;2.58;;
27804;SDS011;15183;51.350;11.102;2023-02-01T00:31:17;7.55;;;2.35;;
27804;SDS011;15183;51.350;11.102;2023-02-01T00:33:46;15.82;;;3.35;;
27804;SDS011;15183;51.350;11.102;2023-02-01T00:36:14;6.78;;;2.08;;
27804;SDS011;15183;51.350;11.102;2023-02-01T00:41:47;9.25;;;2.15;;
27804;SDS011;15183;51.350;11.102;2023-02-01T00:44:14;7.18;;;2.25;;
27804;SDS011;15183;51.350;11.102;2023-02-01T00:46:40;7.60;;;2.45;;
27804;SDS011;15183;51.350;11.102;2023-02-01T00:49:07;11.05;;;2.55;;
27804;SDS011;15183;51.350;11.102;2023-02-01T00:51:34;9.98;;;2.50;;
27804;SDS011;15183;51.350;11.102;2023-02-01T00:54:01;12.77;;;2.70;;
27804;SDS011;15183;51.350;11.102;2023-02-01T00:56:28;10.07;;;2.72;;
27804;SDS011;15183;51.350;11.102;2023-02-01T00:58:55;14.18;;;3.25;;
27804;SDS011;15183;51.350;11.102;2023-02-01T01:01:23;12.50;;;2.70;;
27804;SDS011;15183;51.350;11.102;2023-02-01T01:03:54;11.07;;;2.75;;
27804;SDS011;15183;51.350;11.102;2023-02-01T01:06:25;9.85;;;2.72;;
27804;SDS011;15183;51.350;11.102;2023-02-01T01:08:54;10.25;;;2.88;;
27804;SDS011;15183;51.350;11.102;2023-02-01T01:11:24;8.00;;;2.30;;
27804;SDS011;15183;51.350;11.102;2023-02-01T01:13:54;12.18;;;2.50;;
27804;SDS011;15183;51.350;11.102;2023-02-01T01:16:22;12.60;;;2.75;;
27804;SDS011;15183;51.350;11.102;2023-02-01T01:18:52;8.45;;;2.42;;
27804;SDS011;15183;51.350;11.102;2023-02-01T01:21:19;8.85;;;2.55;;
27804;SDS011;15183;51.350;11.102;2023-02-01T01:23:46;12.50;;;2.97;;
27804;SDS011;15183;51.350;11.102;2023-02-01T01:26:14;15.38;;;3.17;;
27804;SDS011;15183;51.350;11.102;2023-02-01T01:28:46;10.40;;;2.90;;
27804;SDS011;15183;51.350;11.102;2023-02-01T01:31:14;13.02;;;2.75;;
27804;SDS011;15183;51.350;11.102;2023-02-01T01:33:42;12.40;;;2.50;;
27804;SDS011;15183;51.350;11.102;2023-02-01T01:36:09;14.63;;;2.83;;
27804;SDS011;15183;51.350;11.102;2023-02-01T01:38:44;12.18;;;2.72;;
27804;SDS011;15183;51.350;11.102;2023-02-01T01:41:12;13.38;;;2.53;;
27804;SDS011;15183;51.350;11.102;2023-02-01T01:46:45;8.10;;;2.63;;
27804;SDS011;15183;51.350;11.102;2023-02-01T01:49:11;18.15;;;3.00;;
27804;SDS011;15183;51.350;11.102;2023-02-01T01:51:47;10.18;;;2.83;;
27804;SDS011;15183;51.350;11.102;2023-02-01T01:54:19;16.02;;;3.33;;
27804;SDS011;15183;51.350;11.102;2023-02-01T01:56:53;14.90;;;2.95;;
27804;SDS011;15183;51.350;11.102;2023-02-01T01:59:35;18.63;;;3.35;;
27804;SDS011;15183;51.350;11.102;2023-02-01T02:02:04;16.08;;;3.20;;
27804;SDS011;15183;51.350;11.102;2023-02-01T02:04:31;12.55;;;2.45;;
27804;SDS011;15183;51.350;11.102;2023-02-01T02:07:00;10.50;;;2.67;;
27804;SDS011;15183;51.350;11.102;2023-02-01T02:09:41;12.48;;;3.40;;
27804;SDS011;15183;51.350;11.102;2023-02-01T02:12:09;12.68;;;2.85;;
27804;SDS011;15183;51.350;11.102;2023-02-01T02:14:35;11.07;;;2.78;;
27804;SDS011;15183;51.350;11.102;2023-02-01T02:23:20;14.63;;;2.88;;
27804;SDS011;15183;51.350;11.102;2023-02-01T02:34:38;11.32;;;2.60;;
27804;SDS011;15183;51.350;11.102;2023-02-01T02:37:32;11.90;;;3.10;;
27804;SDS011;15183;51.350;11.102;2023-02-01T02:40:07;16.10;;;3.00;;
27804;SDS011;15183;51.350;11.102;2023-02-01T02:46:26;17.55;;;2.50;;
27804;SDS011;15183;51.350;11.102;2023-02-01T02:49:32;9.23;;;2.47;;
27804;SDS011;15183;51.350;11.102;2023-02-01T02:52:29;9.80;;;2.33;;
27804;SDS011;15183;51.350;11.102;2023-02-01T02:55:16;17.52;;;4.13;;
27804;SDS011;15183;51.350;11.102;2023-02-01T02:57:43;14.15;;;3.80;;
27804;SDS011;15183;51.350;11.102;2023-02-01T03:00:30;15.13;;;3.67;;
27804;SDS011;15183;51.350;11.102;2023-02-01T03:03:18;12.98;;;2.90;;
27804;SDS011;15183;51.350;11.102;2023-02-01T03:06:02;13.82;;;3.28;;
27804;SDS011;15183;51.350;11.102;2023-02-01T03:08:31;11.45;;;2.80;;
27804;SDS011;15183;51.350;11.102;2023-02-01T03:11:07;14.70;;;2.75;;
27804;SDS011;15183;51.350;11.102;2023-02-01T03:13:47;14.65;;;3.13;;
27804;SDS011;15183;51.350;11.102;2023-02-01T03:16:30;12.55;;;3.10;;
27804;SDS011;15183;51.350;11.102;2023-02-01T03:19:09;17.38;;;2.83;;
27804;SDS011;15183;51.350;11.102;2023-02-01T03:21:57;13.95;;;3.20;;
27804;SDS011;15183;51.350;11.102;2023-02-01T03:27:45;12.85;;;2.75;;
27804;SDS011;15183;51.350;11.102;2023-02-01T03:30:21;12.10;;;2.65;;
27804;SDS011;15183;51.350;11.102;2023-02-01T03:32:54;10.18;;;2.40;;
27804;SDS011;15183;51.350;11.102;2023-02-01T03:38:04;12.40;;;3.05;;
27804;SDS011;15183;51.350;11.102;2023-02-01T03:46:25;22.27;;;3.70;;
27804;SDS011;15183;51.350;11.102;2023-02-01T03:49:04;15.90;;;3.00;;
27804;SDS011;15183;51.350;11.102;2023-02-01T03:51:36;14.25;;;3.28;;
27804;SDS011;15183;51.350;11.102;2023-02-01T03:54:06;14.90;;;3.10;;
27804;SDS011;15183;51.350;11.102;2023-02-01T03:56:38;11.77;;;3.47;;
27804;SDS011;15183;51.350;11.102;2023-02-01T03:59:10;13.40;;;2.75;;
27804;SDS011;15183;51.350;11.102;2023-02-01T04:01:38;16.95;;;3.05;;
27804;SDS011;15183;51.350;11.102;2023-02-01T04:04:05;10.68;;;2.30;;
27804;SDS011;15183;51.350;11.102;2023-02-01T04:06:32;10.85;;;2.60;;
27804;SDS011;15183;51.350;11.102;2023-02-01T04:08:59;17.60;;;3.90;;
27804;SDS011;15183;51.350;11.102;2023-02-01T04:11:25;14.02;;;3.20;;
27804;SDS011;15183;51.350;11.102;2023-02-01T04:13:53;13.10;;;3.90;;
27804;SDS011;15183;51.350;11.102;2023-02-01T04:16:19;12.45;;;3.00;;
27804;SDS011;15183;51.350;11.102;2023-02-01T04:18:46;14.52;;;3.28;;
27804;SDS011;15183;51.350;11.102;2023-02-01T04:21:12;12.38;;;3.70;;
27804;SDS011;15183;51.350;11.102;2023-02-01T04:23:38;10.07;;;2.80;;
27804;SDS011;15183;51.350;11.102;2023-02-01T04:26:05;13.75;;;3.03;;
27804;SDS011;15183;51.350;11.102;2023-02-01T04:28:31;10.68;;;3.22;;
27804;SDS011;15183;51.350;11.102;2023-02-01T04:30:58;13.55;;;3.08;;
27804;SDS011;15183;51.350;11.102;2023-02-01T04:33:24;12.52;;;3.33;;
27804;SDS011;15183;51.350;11.102;2023-02-01T04:35:50;9.70;;;3.08;;
27804;SDS011;15183;51.350;11.102;2023-02-01T04:38:17;12.75;;;3.15;;
27804;SDS011;15183;51.350;11.102;2023-02-01T04:40:45;13.50;;;3.08;;
27804;SDS011;15183;51.350;11.102;2023-02-01T04:43:13;15.02;;;3.42;;
27804;SDS011;15183;51.350;11.102;2023-02-01T04:45:41;9.68;;;3.22;;
27804;SDS011;15183;51.350;11.102;2023-02-01T04:48:07;12.02;;;2.92;;
27804;SDS011;15183;51.350;11.102;2023-02-01T04:50:33;18.88;;;3.30;;
27804;SDS011;15183;51.350;11.102;2023-02-01T04:53:00;8.82;;;2.60;;
27804;SDS011;15183;51.350;11.102;2023-02-01T04:55:26;16.73;;;3.35;;
27804;SDS011;15183;51.350;11.102;2023-02-01T04:57:53;13.07;;;2.80;;
27804;SDS011;15183;51.350;11.102;2023-02-01T05:00:19;10.05;;;2.58;;
27804;SDS011;15183;51.350;11.102;2023-02-01T05:02:46;12.85;;;2.95;;
27804;SDS011;15183;51.350;11.102;2023-02-01T05:05:12;14.45;;;3.72;;
27804;SDS011;15183;51.350;11.102;2023-02-01T05:07:39;15.98;;;4.20;;
27804;SDS011;15183;51.350;11.102;2023-02-01T05:10:05;16.70;;;4.90;;
27804;SDS011;15183;51.350;11.102;2023-02-01T05:12:32;15.75;;;4.03;;
27804;SDS011;15183;51.350;11.102;2023-02-01T05:15:17;18.60;;;4.10;;
27804;SDS011;15183;51.350;11.102;2023-02-01T05:21:25;14.52;;;3.25;;
27804;SDS011;15183;51.350;11.102;2023-02-01T05:23:51;11.32;;;2.67;;
27804;SDS011;15183;51.350;11.102;2023-02-01T05:26:36;13.27;;;3.00;;
27804;SDS011;15183;51.350;11.102;2023-02-01T05:29:04;9.55;;;2.90;;
27804;SDS011;15183;51.350;11.102;2023-02-01T05:31:31;13.05;;;2.90;;
27804;SDS011;15183;51.350;11.102;2023-02-01T05:33:58;11.27;;;2.55;;
27804;SDS011;15183;51.350;11.102;2023-02-01T05:36:24;12.43;;;3.30;;
27804;SDS011;15183;51.350;11.102;2023-02-01T05:38:50;14.10;;;2.88;;
27804;SDS011;15183;51.350;11.102;2023-02-01T05:41:17;14.40;;;3.22;;
27804;SDS011;15183;51.350;11.102;2023-02-01T05:43:43;10.15;;;3.08;;
27804;SDS011;15183;51.350;11.102;2023-02-01T05:46:10;12.88;;;3.35;;
27804;SDS011;15183;51.350;11.102;2023-02-01T05:48:38;8.10;;;3.17;;
27804;SDS011;15183;51.350;11.102;2023-02-01T05:51:09;9.85;;;3.45;;
27804;SDS011;15183;51.350;11.102;2023-02-01T05:53:36;13.57;;;3.45;;
27804;SDS011;15183;51.350;11.102;2023-02-01T05:56:03;15.20;;;3.58;;
27804;SDS011;15183;51.350;11.102;2023-02-01T05:58:30;13.07;;;3.72;;
27804;SDS011;15183;51.350;11.102;2023-02-01T06:01:00;11.50;;;3.50;;
27804;SDS011;15183;51.350;11.102;2023-02-01T06:03:27;16.00;;;3.60;;
27804;SDS011;15183;51.350;11.102;2023-02-01T06:05:54;12.40;;;3.60;;
27804;SDS011;15183;51.350;11.102;2023-02-01T06:08:21;11.63;;;3.38;;
27804;SDS011;15183;51.350;11.102;2023-02-01T06:10:49;12.75;;;3.63;;
27804;SDS011;15183;51.350;11.102;2023-02-01T06:13:16;13.32;;;3.13;;
27804;SDS011;15183;51.350;11.102;2023-02-01T06:15:42;12.20;;;3.22;;
27804;SDS011;15183;51.350;11.102;2023-02-01T06:18:09;9.05;;;2.72;;
27804;SDS011;15183;51.350;11.102;2023-02-01T06:20:36;9.73;;;3.47;;
27804;SDS011;15183;51.350;11.102;2023-02-01T06:23:02;12.40;;;3.25;;
27804;SDS011;15183;51.350;11.102;2023-02-01T06:25:30;12.60;;;3.10;;
27804;SDS011;15183;51.350;11.102;2023-02-01T06:27:59;16.05;;;4.43;;
27804;SDS011;15183;51.350;11.102;2023-02-01T06:30:27;14.43;;;4.85;;
27804;SDS011;15183;51.350;11.102;2023-02-01T06:32:53;17.00;;;5.05;;
27804;SDS011;15183;51.350;11.102;2023-02-01T06:35:20;15.95;;;5.80;;
27804;SDS011;15183;51.350;11.102;2023-02-01T06:37:46;19.08;;;6.40;;
27804;SDS011;15183;51.350;11.102;2023-02-01T06:40:13;13.38;;;5.82;;
27804;SDS011;15183;51.350;11.102;2023-02-01T06:42:42;14.63;;;5.85;;
27804;SDS011;15183;51.350;11.102;2023-02-01T06:45:09;12.95;;;4.50;;
27804;SDS011;15183;51.350;11.102;2023-02-01T06:47:35;12.43;;;4.28;;
27804;SDS011;15183;51.350;11.102;2023-02-01T06:50:02;10.77;;;3.40;;
27804;SDS011;15183;51.350;11.102;2023-02-01T06:52:29;14.07;;;4.10;;
27804;SDS011;15183;51.350;11.102;2023-02-01T06:54:55;12.15;;;3.92;;
27804;SDS011;15183;51.350;11.102;2023-02-01T06:57:22;16.63;;;4.38;;
27804;SDS011;15183;51.350;11.102;2023-02-01T06:59:48;18.33;;;5.03;;
27804;SDS011;15183;51.350;11.102;2023-02-01T07:02:14;12.75;;;3.38;;
27804;SDS011;15183;51.350;11.102;2023-02-01T07:04:41;10.35;;;3.33;;
27804;SDS011;15183;51.350;11.102;2023-02-01T07:07:07;12.70;;;3.75;;
27804;SDS011;15183;51.350;11.102;2023-02-01T07:09:34;10.25;;;3.20;;
27804;SDS011;15183;51.350;11.102;2023-02-01T07:12:03;19.92;;;4.20;;
27804;SDS011;15183;51.350;11.102;2023-02-01T07:14:29;11.05;;;3.58;;
27804;SDS011;15183;51.350;11.102;2023-02-01T07:16:56;9.80;;;2.83;;
27804;SDS011;15183;51.350;11.102;2023-02-01T07:19:22;11.30;;;3.08;;
27804;SDS011;15183;51.350;11.102;2023-02-01T07:21:49;12.95;;;3.17;;
27804;SDS011;15183;51.350;11.102;2023-02-01T07:24:15;15.25;;;3.70;;
27804;SDS011;15183;51.350;11.102;2023-02-01T07:26:42;10.70;;;3.33;;
27804;SDS011;15183;51.350;11.102;2023-02-01T07:29:08;11.98;;;4.30;;
27804;SDS011;15183;51.350;11.102;2023-02-01T07:31:35;13.20;;;4.30;;
27804;SDS011;15183;51.350;11.102;2023-02-01T07:34:01;17.92;;;4.47;;
27804;SDS011;15183;51.350;11.102;2023-02-01T07:36:28;14.50;;;4.65;;
27804;SDS011;15183;51.350;11.102;2023-02-01T07:38:54;10.05;;;3.20;;
27804;SDS011;15183;51.350;11.102;2023-02-01T07:41:21;15.38;;;4.10;;
27804;SDS011;15183;51.350;11.102;2023-02-01T07:43:47;11.73;;;3.22;;
27804;SDS011;15183;51.350;11.102;2023-02-01T07:46:16;11.45;;;4.00;;
27804;SDS011;15183;51.350;11.102;2023-02-01T07:48:42;8.98;;;3.78;;
27804;SDS011;15183;51.350;11.102;2023-02-01T07:51:10;17.48;;;4.93;;
27804;SDS011;15183;51.350;11.102;2023-02-01T07:53:38;10.65;;;3.20;;
27804;SDS011;15183;51.350;11.102;2023-02-01T07:56:13;10.48;;;3.13;;
27804;SDS011;15183;51.350;11.102;2023-02-01T07:58:42;10.27;;;2.97;;
27804;SDS011;15183;51.350;11.102;2023-02-01T08:01:19;12.82;;;3.03;;
27804;SDS011;15183;51.350;11.102;2023-02-01T08:03:51;12.35;;;3.15;;
27804;SDS011;15183;51.350;11.102;2023-02-01T08:06:29;13.93;;;3.08;;
27804;SDS011;15183;51.350;11.102;2023-02-01T08:08:59;12.40;;;3.55;;
27804;SDS011;15183;51.350;11.102;2023-02-01T08:11:26;7.65;;;3.13;;
27804;SDS011;15183;51.350;11.102;2023-02-01T08:13:52;11.15;;;2.90;;
27804;SDS011;15183;51.350;11.102;2023-02-01T08:16:19;9.20;;;3.13;;
27804;SDS011;15183;51.350;11.102;2023-02-01T08:18:47;10.77;;;2.90;;
27804;SDS011;15183;51.350;11.102;2023-02-01T08:21:17;9.75;;;2.97;;
27804;SDS011;15183;51.350;11.102;2023-02-01T08:23:50;8.68;;;3.00;;
27804;SDS011;15183;51.350;11.102;2023-02-01T08:26:18;10.32;;;3.30;;
27804;SDS011;15183;51.350;11.102;2023-02-01T08:28:51;9.73;;;2.95;;
27804;SDS011;15183;51.350;11.102;2023-02-01T08:31:21;11.43;;;3.13;;
27804;SDS011;15183;51.350;11.102;2023-02-01T08:33:50;12.07;;;3.85;;
27804;SDS011;15183;51.350;11.102;2023-02-01T08:36:22;10.68;;;4.22;;
27804;SDS011;15183;51.350;11.102;2023-02-01T08:38:50;13.07;;;4.50;;
27804;SDS011;15183;51.350;11.102;2023-02-01T08:41:17;11.82;;;3.85;;
27804;SDS011;15183;51.350;11.102;2023-02-01T08:43:46;16.02;;;3.42;;
27804;SDS011;15183;51.350;11.102;2023-02-01T08:46:13;13.35;;;3.63;;
27804;SDS011;15183;51.350;11.102;2023-02-01T08:48:40;10.98;;;3.22;;
27804;SDS011;15183;51.350;11.102;2023-02-01T08:51:11;11.93;;;3.22;;
27804;SDS011;15183;51.350;11.102;2023-02-01T08:53:40;12.77;;;4.22;;
27804;SDS011;15183;51.350;11.102;2023-02-01T08:56:07;14.30;;;5.07;;
27804;SDS011;15183;51.350;11.102;2023-02-01T08:58:35;11.80;;;4.32;;
27804;SDS011;15183;51.350;11.102;2023-02-01T09:01:03;14.80;;;4.65;;
27804;SDS011;15183;51.350;11.102;2023-02-01T09:03:35;13.52;;;4.10;;
27804;SDS011;15183;51.350;11.102;2023-02-01T09:06:03;11.40;;;4.22;;
27804;SDS011;15183;51.350;11.102;2023-02-01T09:08:32;13.43;;;4.03;;
27804;SDS011;15183;51.350;11.102;2023-02-01T09:11:04;13.77;;;3.97;;
27804;SDS011;15183;51.350;11.102;2023-02-01T09:13:35;13.82;;;4.15;;
27804;SDS011;15183;51.350;11.102;2023-02-01T09:16:02;14.80;;;4.47;;
27804;SDS011;15183;51.350;11.102;2023-02-01T09:18:30;10.45;;;3.70;;
27804;SDS011;15183;51.350;11.102;2023-02-01T09:20:56;15.50;;;3.50;;
27804;SDS011;15183;51.350;11.102;2023-02-01T09:23:23;11.93;;;3.22;;
27804;SDS011;15183;51.350;11.102;2023-02-01T09:25:49;14.38;;;3.75;;
27804;SDS011;15183;51.350;11.102;2023-02-01T09:28:17;10.07;;;3.60;;
27804;SDS011;15183;51.350;11.102;2023-02-01T09:30:44;9.65;;;3.40;;
27804;SDS011;15183;51.350;11.102;2023-02-01T09:33:11;8.27;;;2.97;;
27804;SDS011;15183;51.350;11.102;2023-02-01T09:35:37;9.88;;;2.80;;
27804;SDS011;15183;51.350;11.102;2023-02-01T09:38:03;11.15;;;3.60;;
27804;SDS011;15183;51.350;11.102;2023-02-01T09:40:30;11.38;;;2.88;;
27804;SDS011;15183;51.350;11.102;2023-02-01T09:48:52;9.30;;;3.28;;
27804;SDS011;15183;51.350;11.102;2023-02-01T09:51:23;8.20;;;3.90;;
27804;SDS011;15183;51.350;11.102;2023-02-01T09:54:04;8.65;;;3.55;;
27804;SDS011;15183;51.350;11.102;2023-02-01T09:56:49;7.88;;;2.80;;
27804;SDS011;15183;51.350;11.102;2023-02-01T09:59:38;7.13;;;3.30;;
27804;SDS011;15183;51.350;11.102;2023-02-01T10:02:16;7.00;;;2.72;;
27804;SDS011;15183;51.350;11.102;2023-02-01T10:04:52;6.88;;;3.30;;
27804;SDS011;15183;51.350;11.102;2023-02-01T10:10:35;10.02;;;3.58;;
27804;SDS011;15183;51.350;11.102;2023-02-01T10:16:31;10.90;;;3.45;;
27804;SDS011;15183;51.350;11.102;2023-02-01T10:19:39;11.30;;;3.60;;
27804;SDS011;15183;51.350;11.102;2023-02-01T10:27:54;8.95;;;4.07;;
27804;SDS011;15183;51.350;11.102;2023-02-01T10:30:25;16.08;;;4.60;;
27804;SDS011;15183;51.350;11.102;2023-02-01T10:33:19;13.25;;;3.88;;
27804;SDS011;15183;51.350;11.102;2023-02-01T10:36:10;9.13;;;3.85;;
27804;SDS011;15183;51.350;11.102;2023-02-01T10:38:53;9.73;;;3.47;;
27804;SDS011;15183;51.350;11.102;2023-02-01T10:41:21;12.85;;;3.55;;
27804;SDS011;15183;51.350;11.102;2023-02-01T10:43:50;14.50;;;4.18;;
27804;SDS011;15183;51.350;11.102;2023-02-01T10:46:22;14.60;;;4.10;;
27804;SDS011;15183;51.350;11.102;2023-02-01T10:48:52;15.85;;;4.35;;
27804;SDS011;15183;51.350;11.102;2023-02-01T10:58:00;10.27;;;3.42;;
27804;SDS011;15183;51.350;11.102;2023-02-01T11:01:03;13.45;;;3.33;;
27804;SDS011;15183;51.350;11.102;2023-02-01T11:03:37;14.23;;;3.38;;
27804;SDS011;15183;51.350;11.102;2023-02-01T11:06:44;14.75;;;3.22;;
27804;SDS011;15183;51.350;11.102;2023-02-01T11:09:30;12.48;;;2.85;;
27804;SDS011;15183;51.350;11.102;2023-02-01T11:11:57;12.45;;;2.70;;
27804;SDS011;15183;51.350;11.102;2023-02-01T11:19:56;10.43;;;3.13;;
27804;SDS011;15183;51.350;11.102;2023-02-01T11:22:26;12.60;;;3.15;;
27804;SDS011;15183;51.350;11.102;2023-02-01T11:24:54;8.20;;;2.60;;
27804;SDS011;15183;51.350;11.102;2023-02-01T11:27:23;15.63;;;3.20;;
27804;SDS011;15183;51.350;11.102;2023-02-01T11:29:52;13.02;;;2.70;;
27804;SDS011;15183;51.350;11.102;2023-02-01T11:32:24;12.50;;;2.72;;
27804;SDS011;15183;51.350;11.102;2023-02-01T11:34:57;9.52;;;2.80;;
27804;SDS011;15183;51.350;11.102;2023-02-01T11:37:33;7.53;;;2.30;;
27804;SDS011;15183;51.350;11.102;2023-02-01T11:40:22;15.38;;;3.17;;
27804;SDS011;15183;51.350;11.102;2023-02-01T11:43:00;9.50;;;2.38;;
27804;SDS011;15183;51.350;11.102;2023-02-01T11:45:33;13.18;;;3.72;;
27804;SDS011;15183;51.350;11.102;2023-02-01T11:48:09;13.18;;;3.90;;
27804;SDS011;15183;51.350;11.102;2023-02-01T11:50:51;11.07;;;3.97;;
27804;SDS011;15183;51.350;11.102;2023-02-01T11:53:57;9.82;;;3.55;;
27804;SDS011;15183;51.350;11.102;2023-02-01T11:56:33;11.15;;;3.38;;
27804;SDS011;15183;51.350;11.102;2023-02-01T11:59:11;12.52;;;3.00;;
27804;SDS011;15183;51.350;11.102;2023-02-01T12:05:44;11.90;;;3.53;;
27804;SDS011;15183;51.350;11.102;2023-02-01T12:08:50;13.40;;;3.25;;
27804;SDS011;15183;51.350;11.102;2023-02-01T12:17:21;9.57;;;2.72;;
27804;SDS011;15183;51.350;11.102;2023-02-01T12:20:37;8.65;;;2.33;;
27804;SDS011;15183;51.350;11.102;2023-02-01T12:23:52;10.80;;;3.08;;
27804;SDS011;15183;51.350;11.102;2023-02-01T12:35:13;10.30;;;2.90;;
27804;SDS011;15183;51.350;11.102;2023-02-01T12:44:42;8.70;;;2.60;;
27804;SDS011;15183;51.350;11.102;2023-02-01T12:55:53;8.60;;;3.10;;
27804;SDS011;15183;51.350;11.102;2023-02-01T12:58:31;10.23;;;3.47;;
27804;SDS011;15183;51.350;11.102;2023-02-01T13:01:20;9.90;;;2.90;;
27804;SDS011;15183;51.350;11.102;2023-02-01T13:07:11;12.35;;;3.00;;
27804;SDS011;15183;51.350;11.102;2023-02-01T13:12:24;8.48;;;3.05;;
27804;SDS011;15183;51.350;11.102;2023-02-01T13:17:55;13.30;;;3.28;;
27804;SDS011;15183;51.350;11.102;2023-02-01T13:20:35;7.78;;;2.85;;
27804;SDS011;15183;51.350;11.102;2023-02-01T13:23:37;6.15;;;2.45;;
27804;SDS011;15183;51.350;11.102;2023-02-01T13:26:09;10.07;;;3.28;;
27804;SDS011;15183;51.350;11.102;2023-02-01T13:39:33;11.88;;;3.72;;
27804;SDS011;15183;51.350;11.102;2023-02-01T13:42:22;11.25;;;3.85;;
27804;SDS011;15183;51.350;11.102;2023-02-01T13:45:23;11.07;;;3.92;;
27804;SDS011;15183;51.350;11.102;2023-02-01T13:47:57;9.85;;;4.00;;
27804;SDS011;15183;51.350;11.102;2023-02-01T13:50:34;8.93;;;3.70;;
27804;SDS011;15183;51.350;11.102;2023-02-01T13:53:11;8.27;;;3.55;;
27804;SDS011;15183;51.350;11.102;2023-02-01T13:55:55;8.43;;;3.22;;
27804;SDS011;15183;51.350;11.102;2023-02-01T13:58:38;14.57;;;3.42;;
27804;SDS011;15183;51.350;11.102;2023-02-01T14:11:58;12.05;;;4.05;;
27804;SDS011;15183;51.350;11.102;2023-02-01T14:15:24;9.63;;;3.03;;
27804;SDS011;15183;51.350;11.102;2023-02-01T14:17:53;10.43;;;3.60;;
27804;SDS011;15183;51.350;11.102;2023-02-01T14:23:12;9.75;;;2.55;;
27804;SDS011;15183;51.350;11.102;2023-02-01T14:25:43;8.55;;;2.80;;
27804;SDS011;15183;51.350;11.102;2023-02-01T14:28:24;10.82;;;3.10;;
27804;SDS011;15183;51.350;11.102;2023-02-01T14:30:54;8.38;;;2.30;;
27804;SDS011;15183;51.350;11.102;2023-02-01T14:33:23;9.45;;;2.72;;
27804;SDS011;15183;51.350;11.102;2023-02-01T14:35:55;12.52;;;3.17;;
27804;SDS011;15183;51.350;11.102;2023-02-01T14:38:36;6.90;;;2.78;;
27804;SDS011;15183;51.350;11.102;2023-02-01T14:44:13;11.27;;;3.00;;
27804;SDS011;15183;51.350;11.102;2023-02-01T14:49:54;10.48;;;3.10;;
27804;SDS011;15183;51.350;11.102;2023-02-01T14:53:12;12.52;;;3.30;;
27804;SDS011;15183;51.350;11.102;2023-02-01T14:56:04;8.05;;;2.70;;
27804;SDS011;15183;51.350;11.102;2023-02-01T15:01:25;7.07;;;2.83;;
27804;SDS011;15183;51.350;11.102;2023-02-01T15:06:40;14.85;;;5.97;;
27804;SDS011;15183;51.350;11.102;2023-02-01T15:09:16;10.57;;;5.03;;
27804;SDS011;15183;51.350;11.102;2023-02-01T15:14:43;17.15;;;9.95;;
27804;SDS011;15183;51.350;11.102;2023-02-01T15:17:29;13.43;;;7.25;;
27804;SDS011;15183;51.350;11.102;2023-02-01T15:20:13;12.15;;;5.40;;
27804;SDS011;15183;51.350;11.102;2023-02-01T15:22:51;13.30;;;6.07;;
27804;SDS011;15183;51.350;11.102;2023-02-01T15:25:31;8.65;;;4.07;;
27804;SDS011;15183;51.350;11.102;2023-02-01T15:28:04;7.72;;;3.60;;
27804;SDS011;15183;51.350;11.102;2023-02-01T15:30:34;8.52;;;2.92;;
27804;SDS011;15183;51.350;11.102;2023-02-01T15:33:13;4.78;;;2.38;;
27804;SDS011;15183;51.350;11.102;2023-02-01T15:35:42;9.02;;;3.78;;
27804;SDS011;15183;51.350;11.102;2023-02-01T15:38:20;8.32;;;3.30;;
27804;SDS011;15183;51.350;11.102;2023-02-01T15:40:59;5.10;;;2.53;;
27804;SDS011;15183;51.350;11.102;2023-02-01T15:43:48;9.27;;;3.45;;
27804;SDS011;15183;51.350;11.102;2023-02-01T15:46:22;10.63;;;2.63;;
27804;SDS011;15183;51.350;11.102;2023-02-01T15:49:19;9.50;;;2.53;;
27804;SDS011;15183;51.350;11.102;2023-02-01T15:52:00;7.28;;;2.22;;
27804;SDS011;15183;51.350;11.102;2023-02-01T15:54:42;5.85;;;3.13;;
27804;SDS011;15183;51.350;11.102;2023-02-01T15:57:19;5.35;;;2.65;;
27804;SDS011;15183;51.350;11.102;2023-02-01T16:00:18;4.60;;;1.77;;
27804;SDS011;15183;51.350;11.102;2023-02-01T16:02:57;2.67;;;0.98;;
27804;SDS011;15183;51.350;11.102;2023-02-01T16:05:32;4.63;;;1.00;;
27804;SDS011;15183;51.350;11.102;2023-02-01T16:08:54;4.38;;;0.95;;
27804;SDS011;15183;51.350;11.102;2023-02-01T16:10:59;2.00;;;0.70;;
27804;SDS011;15183;51.350;11.102;2023-02-01T16:13:34;3.42;;;1.10;;
27804;SDS011;15183;51.350;11.102;2023-02-01T16:16:01;3.63;;;2.63;;
27804;SDS011;15183;51.350;11.102;2023-02-01T16:18:33;4.18;;;2.95;;
27804;SDS011;15183;51.350;11.102;2023-02-01T16:20:59;3.92;;;2.45;;
27804;SDS011;15183;51.350;11.102;2023-02-01T16:23:26;3.78;;;2.90;;
27804;SDS011;15183;51.350;11.102;2023-02-01T16:25:54;4.93;;;3.25;;
27804;SDS011;15183;51.350;11.102;2023-02-01T16:28:20;5.45;;;3.35;;
27804;SDS011;15183;51.350;11.102;2023-02-01T16:30:47;5.57;;;2.97;;
27804;SDS011;15183;51.350;11.102;2023-02-01T16:33:16;4.50;;;3.28;;
27804;SDS011;15183;51.350;11.102;2023-02-01T16:35:47;2.25;;;2.00;;
27804;SDS011;15183;51.350;11.102;2023-02-01T16:38:15;1.75;;;1.40;;
27804;SDS011;15183;51.350;11.102;2023-02-01T16:40:47;2.78;;;1.50;;
27804;SDS011;15183;51.350;11.102;2023-02-01T16:43:15;1.98;;;1.48;;
27804;SDS011;15183;51.350;11.102;2023-02-01T16:45:45;1.83;;;1.52;;
27804;SDS011;15183;51.350;11.102;2023-02-01T16:48:24;2.33;;;1.75;;
27804;SDS011;15183;51.350;11.102;2023-02-01T16:51:01;3.83;;;2.58;;
27804;SDS011;15183;51.350;11.102;2023-02-01T16:53:34;3.50;;;2.63;;
27804;SDS011;15183;51.350;11.102;2023-02-01T16:56:12;4.45;;;2.65;;
27804;SDS011;15183;51.350;11.102;2023-02-01T16:59:04;2.72;;;2.08;;
27804;SDS011;15183;51.350;11.102;2023-02-01T17:01:31;4.40;;;2.67;;
27804;SDS011;15183;51.350;11.102;2023-02-01T17:03:57;5.28;;;3.17;;
27804;SDS011;15183;51.350;11.102;2023-02-01T17:06:24;5.43;;;4.03;;
27804;SDS011;15183;51.350;11.102;2023-02-01T17:08:56;3.97;;;3.30;;
27804;SDS011;15183;51.350;11.102;2023-02-01T17:11:24;5.68;;;3.03;;
27804;SDS011;15183;51.350;11.102;2023-02-01T17:13:52;3.63;;;2.83;;
27804;SDS011;15183;51.350;11.102;2023-02-01T17:16:20;2.47;;;1.80;;
27804;SDS011;15183;51.350;11.102;2023-02-01T17:19:03;2.83;;;2.13;;
27804;SDS011;15183;51.350;11.102;2023-02-01T17:21:38;4.63;;;2.15;;
27804;SDS011;15183;51.350;11.102;2023-02-01T17:24:11;4.22;;;2.38;;
27804;SDS011;15183;51.350;11.102;2023-02-01T17:26:40;3.10;;;2.10;;
27804;SDS011;15183;51.350;11.102;2023-02-01T17:29:07;3.70;;;2.10;;
27804;SDS011;15183;51.350;11.102;2023-02-01T17:31:36;3.05;;;2.40;;